Time;durP1;ratioP1;P1;durP2;ratioP2;P2;SDS_P1;SDS_P2;PMS_P1;PMS_P2;Temp;Humidity;BMP_temperature;BMP_pressure;BME280_temperature;BME280_humidity;BME280_pressure;Samples;Min_cycle;Max_cycle;Signal;HPM_P1;HPM_P2
2022/05/13 00:00:38;;;;;;;;;0.00;0.00;;;;;;;;5103094;27;62620;-80
2022/05/13 00:03:04;;;;;;;;;0.00;0.00;;;;;;;;5103322;27;62037;-80
2022/05/13 00:05:29;;;;;;;;;0.50;0.00;;;;;;;;5084900;27;62193;-80
2022/05/13 00:07:55;;;;;;;;;0.00;0.00;;;;;;;;5103844;27;62159;-80
2022/05/13 00:10:20;;;;;;;;;2.00;0.00;;;;;;;;5102655;27;61876;-80
2022/05/13 00:12:45;;;;;;;;;1.00;0.00;;;;;;;;5084922;27;61878;-80
2022/05/13 00:15:13;;;;;;;;;0.00;0.00;;;;;;;;5085222;27;61739;-80
2022/05/13 00:17:38;;;;;;;;;0.00;0.00;;;;;;;;5085153;27;61915;-81
2022/05/13 00:20:05;;;;;;;;;0.00;0.00;;;;;;;;5102714;27;62115;-81
2022/05/13 00:22:30;;;;;;;;;0.25;0.00;;;;;;;;5103429;27;61655;-81
2022/05/13 00:24:56;;;;;;;;;0.00;0.00;;;;;;;;5085017;27;61769;-80
2022/05/13 00:27:21;;;;;;;;;0.75;0.00;;;;;;;;5103510;27;61706;-81
2022/05/13 00:29:47;;;;;;;;;1.00;0.00;;;;;;;;5102713;27;61781;-80
2022/05/13 00:32:12;;;;;;;;;0.00;0.00;;;;;;;;5103066;27;61929;-81
2022/05/13 00:34:38;;;;;;;;;0.50;0.00;;;;;;;;5102892;27;62070;-81
2022/05/13 00:37:03;;;;;;;;;0.00;0.00;;;;;;;;5103628;27;61831;-81
2022/05/13 00:39:28;;;;;;;;;1.50;0.00;;;;;;;;5102150;27;61738;-80
2022/05/13 00:41:53;;;;;;;;;0.00;0.00;;;;;;;;5103091;27;61821;-81
2022/05/13 00:44:19;;;;;;;;;0.00;0.00;;;;;;;;5103362;27;61882;-80
2022/05/13 00:46:44;;;;;;;;;1.00;1.00;;;;;;;;5103228;27;62232;-81
2022/05/13 00:49:11;;;;;;;;;0.00;0.00;;;;;;;;5102483;27;61766;-81
2022/05/13 00:51:38;;;;;;;;;0.00;0.00;;;;;;;;5084269;27;62210;-81
2022/05/13 00:54:05;;;;;;;;;0.00;0.00;;;;;;;;5102846;27;61886;-80
2022/05/13 00:56:30;;;;;;;;;0.25;0.25;;;;;;;;5103118;27;62409;-81
2022/05/13 00:58:57;;;;;;;;;0.75;0.75;;;;;;;;5102417;27;62566;-81
2022/05/13 01:01:23;;;;;;;;;0.00;0.00;;;;;;;;5102995;27;62175;-82
2022/05/13 01:03:50;;;;;;;;;0.00;0.00;;;;;;;;5083929;27;61820;-80
2022/05/13 01:06:17;;;;;;;;;0.00;0.00;;;;;;;;5102752;27;61809;-81
2022/05/13 01:08:43;;;;;;;;;1.50;0.00;;;;;;;;5083111;27;63667;-81
2022/05/13 01:11:14;;;;;;;;;0.25;0.25;;;;;;;;5102864;27;61908;-81
2022/05/13 01:13:40;;;;;;;;;0.00;0.00;;;;;;;;5102654;27;61840;-81
2022/05/13 01:16:06;;;;;;;;;1.00;0.00;;;;;;;;5084327;27;62024;-81
2022/05/13 01:18:34;;;;;;;;;0.00;0.00;;;;;;;;5101654;27;62065;-81
2022/05/13 01:20:59;;;;;;;;;0.00;0.00;;;;;;;;5102432;27;62129;-81
2022/05/13 01:23:30;;;;;;;;;0.00;0.00;;;;;;;;5102425;27;61961;-81
2022/05/13 01:26:01;;;;;;;;;2.00;0.25;;;;;;;;5102799;27;62094;-81
2022/05/13 01:28:47;;;;;;;;;0.25;0.25;;;;;;;;5102081;27;62599;-81
2022/05/13 01:31:14;;;;;;;;;0.00;0.00;;;;;;;;5102608;27;61907;-81
2022/05/13 01:33:40;;;;;;;;;0.00;0.00;;;;;;;;5102094;27;61916;-80
2022/05/13 01:36:06;;;;;;;;;1.00;0.00;;;;;;;;5102565;27;62115;-81
2022/05/13 01:38:33;;;;;;;;;2.00;0.00;;;;;;;;5101589;27;62552;-81
2022/05/13 01:40:59;;;;;;;;;0.00;0.00;;;;;;;;5083702;27;61851;-80
2022/05/13 01:43:25;;;;;;;;;1.00;0.00;;;;;;;;5084161;27;61881;-81
2022/05/13 01:45:50;;;;;;;;;2.00;0.00;;;;;;;;5102360;27;61793;-80
2022/05/13 01:48:15;;;;;;;;;0.25;0.25;;;;;;;;5101525;27;62060;-81
2022/05/13 01:50:41;;;;;;;;;0.00;0.00;;;;;;;;5083653;27;62256;-81
2022/05/13 01:53:07;;;;;;;;;0.75;0.75;;;;;;;;5083605;27;62307;-81
2022/05/13 01:55:32;;;;;;;;;2.00;0.50;;;;;;;;5102379;27;61765;-80
2022/05/13 01:57:58;;;;;;;;;1.00;0.00;;;;;;;;5101532;27;62051;-80
2022/05/13 02:00:23;;;;;;;;;2.00;1.00;;;;;;;;5102174;27;61753;-80
2022/05/13 02:05:53;;;;;;;;;0.25;0.25;;;;;;;;5018472;28;62395;-80
2022/05/13 02:08:18;;;;;;;;;1.75;0.50;;;;;;;;5017666;28;62129;-80
2022/05/13 02:10:44;;;;;;;;;1.75;1.00;;;;;;;;5018547;28;61993;-80
2022/05/13 02:13:10;;;;;;;;;1.75;1.00;;;;;;;;5018893;28;61704;-81
2022/05/13 02:15:35;;;;;;;;;0.50;0.50;;;;;;;;5020021;28;61944;-80
2022/05/13 02:18:01;;;;;;;;;0.00;0.00;;;;;;;;5027510;28;61903;-80
2022/05/13 02:20:26;;;;;;;;;0.50;0.00;;;;;;;;5024021;28;62086;-80
2022/05/13 02:22:52;;;;;;;;;0.75;0.00;;;;;;;;5021902;28;61838;-80
2022/05/13 02:25:18;;;;;;;;;0.00;0.00;;;;;;;;5022294;28;62120;-80
2022/05/13 02:27:44;;;;;;;;;0.00;0.00;;;;;;;;5021322;28;61921;-80
2022/05/13 02:30:09;;;;;;;;;0.00;0.00;;;;;;;;5021707;28;62157;-80
2022/05/13 02:32:35;;;;;;;;;1.00;1.00;;;;;;;;5022020;28;61857;-80
2022/05/13 02:35:00;;;;;;;;;0.75;0.50;;;;;;;;5021229;28;61884;-80
2022/05/13 02:37:26;;;;;;;;;1.00;1.00;;;;;;;;5074841;27;63167;-79
2022/05/13 02:39:51;;;;;;;;;2.50;1.00;;;;;;;;5104651;27;62335;-80
2022/05/13 02:42:16;;;;;;;;;1.00;1.00;;;;;;;;5086704;27;61934;-80
2022/05/13 02:44:42;;;;;;;;;0.50;0.50;;;;;;;;5086757;27;61753;-80
2022/05/13 02:47:11;;;;;;;;;1.25;0.00;;;;;;;;5103587;27;61824;-79
2022/05/13 02:49:37;;;;;;;;;1.00;1.00;;;;;;;;5104218;27;61962;-80
2022/05/13 02:52:03;;;;;;;;;0.00;0.00;;;;;;;;5086738;27;61914;-80
2022/05/13 02:54:29;;;;;;;;;1.75;0.00;;;;;;;;5105102;27;61930;-80
2022/05/13 02:56:54;;;;;;;;;1.00;0.00;;;;;;;;5104012;27;62619;-80
2022/05/13 02:59:19;;;;;;;;;0.00;0.00;;;;;;;;5086360;27;61790;-81
2022/05/13 03:01:45;;;;;;;;;0.00;0.00;;;;;;;;5104816;27;62064;-81
2022/05/13 03:04:10;;;;;;;;;0.00;0.00;;;;;;;;5104758;27;61653;-80
2022/05/13 03:06:35;;;;;;;;;1.75;1.00;;;;;;;;5103886;27;61696;-81
2022/05/13 03:09:01;;;;;;;;;2.00;2.00;;;;;;;;5085737;27;62093;-80
2022/05/13 03:11:26;;;;;;;;;1.50;1.50;;;;;;;;5104851;27;61935;-81
2022/05/13 03:13:52;;;;;;;;;2.00;2.00;;;;;;;;5104978;27;61651;-81
2022/05/13 03:16:19;;;;;;;;;3.50;3.00;;;;;;;;5103795;27;61890;-81
2022/05/13 03:18:49;;;;;;;;;2.75;1.50;;;;;;;;5104031;27;61957;-80
2022/05/13 03:21:15;;;;;;;;;3.25;2.00;;;;;;;;5104274;27;61966;-81
2022/05/13 03:23:43;;;;;;;;;5.75;2.00;;;;;;;;5104664;27;62086;-81
2022/05/13 03:26:10;;;;;;;;;2.00;2.00;;;;;;;;5103705;27;61718;-81
2022/05/13 03:28:35;;;;;;;;;1.75;1.75;;;;;;;;5104251;27;61959;-81
2022/05/13 03:31:00;;;;;;;;;4.00;2.75;;;;;;;;5104052;27;61755;-81
2022/05/13 03:33:26;;;;;;;;;2.25;1.00;;;;;;;;5104408;27;61798;-81
2022/05/13 03:35:51;;;;;;;;;2.00;2.00;;;;;;;;5085086;27;64967;-81
2022/05/13 03:38:16;;;;;;;;;2.25;1.75;;;;;;;;5103775;27;62222;-79
2022/05/13 03:40:42;;;;;;;;;3.00;3.00;;;;;;;;5104125;27;61918;-80
2022/05/13 03:43:07;;;;;;;;;4.25;3.00;;;;;;;;5104108;27;61870;-80
2022/05/13 03:45:34;;;;;;;;;5.50;2.50;;;;;;;;5085033;27;63713;-81
2022/05/13 03:48:00;;;;;;;;;3.50;2.25;;;;;;;;5103624;27;61803;-80
2022/05/13 03:50:26;;;;;;;;;4.25;2.00;;;;;;;;5085308;27;61881;-80
2022/05/13 03:52:52;;;;;;;;;2.50;1.00;;;;;;;;5085480;27;61721;-81
2022/05/13 03:55:17;;;;;;;;;0.50;0.50;;;;;;;;5103198;27;61824;-80
2022/05/13 03:57:42;;;;;;;;;3.00;3.00;;;;;;;;5103876;27;61807;-80
2022/05/13 04:00:09;;;;;;;;;2.75;1.00;;;;;;;;5103744;27;61878;-80
2022/05/13 04:02:35;;;;;;;;;1.75;1.75;;;;;;;;5103802;27;62129;-80
2022/05/13 04:10:28;;;;;;;;;2.75;1.00;;;;;;;;5103615;27;61772;-80
2022/05/13 04:18:21;;;;;;;;;2.00;1.00;;;;;;;;5103153;27;61772;-81
2022/05/13 04:20:47;;;;;;;;;1.00;1.00;;;;;;;;5103328;27;61678;-81
2022/05/13 04:23:13;;;;;;;;;3.00;2.00;;;;;;;;5103431;27;61985;-80
2022/05/13 04:25:38;;;;;;;;;2.50;0.50;;;;;;;;5084544;27;63596;-81
2022/05/13 04:28:04;;;;;;;;;3.00;1.00;;;;;;;;5103558;27;61898;-81
2022/05/13 04:30:29;;;;;;;;;2.00;1.00;;;;;;;;5103296;27;62045;-81
2022/05/13 04:32:54;;;;;;;;;3.00;2.00;;;;;;;;5103182;27;61889;-81
2022/05/13 04:35:19;;;;;;;;;2.50;1.50;;;;;;;;5083971;27;63810;-81
2022/05/13 04:37:45;;;;;;;;;3.00;2.00;;;;;;;;5103060;27;61969;-81
2022/05/13 04:40:10;;;;;;;;;1.50;1.50;;;;;;;;5102810;27;61893;-81
2022/05/13 04:42:51;;;;;;;;;7.00;2.75;;;;;;;;5103268;27;62121;-81
2022/05/13 04:45:23;;;;;;;;;1.00;1.00;;;;;;;;5102270;27;61748;-81
2022/05/13 04:50:33;;;;;;;;;1.00;1.00;;;;;;;;5102836;27;61899;-81
2022/05/13 04:52:58;;;;;;;;;1.00;1.00;;;;;;;;5084748;27;62096;-81
2022/05/13 04:55:25;;;;;;;;;3.25;1.75;;;;;;;;5102232;27;61871;-81
2022/05/13 04:57:50;;;;;;;;;1.75;1.50;;;;;;;;5102977;27;61687;-81
2022/05/13 05:00:15;;;;;;;;;2.00;1.00;;;;;;;;5102744;27;61838;-81
2022/05/13 05:02:41;;;;;;;;;2.25;2.25;;;;;;;;5103116;27;61684;-81
2022/05/13 05:05:06;;;;;;;;;3.75;2.00;;;;;;;;5102306;27;61886;-83
2022/05/13 05:07:31;;;;;;;;;2.00;1.00;;;;;;;;5102630;27;61738;-81
2022/05/13 05:09:57;;;;;;;;;2.00;1.00;;;;;;;;5102794;27;61620;-82
2022/05/13 05:12:22;;;;;;;;;0.25;0.25;;;;;;;;5102753;27;61906;-82
2022/05/13 05:14:47;;;;;;;;;0.50;0.25;;;;;;;;5101699;27;61879;-81
2022/05/13 05:17:12;;;;;;;;;2.00;1.75;;;;;;;;5083684;27;62128;-81
2022/05/13 05:19:38;;;;;;;;;1.00;1.00;;;;;;;;5102048;27;61817;-80
2022/05/13 05:22:05;;;;;;;;;1.00;1.00;;;;;;;;5103033;27;62770;-81
2022/05/13 05:24:31;;;;;;;;;1.25;1.00;;;;;;;;5083243;27;64168;-82
2022/05/13 05:26:56;;;;;;;;;2.75;1.00;;;;;;;;5102483;27;61805;-81
2022/05/13 05:29:25;;;;;;;;;1.00;1.00;;;;;;;;5102451;27;62072;-81
2022/05/13 05:31:55;;;;;;;;;1.00;1.00;;;;;;;;5084102;27;61830;-82
2022/05/13 05:34:20;;;;;;;;;3.50;0.75;;;;;;;;5101812;27;62548;-83
2022/05/13 05:36:45;;;;;;;;;2.25;1.75;;;;;;;;5083796;27;61924;-84
2022/05/13 05:39:11;;;;;;;;;1.00;1.00;;;;;;;;5103576;27;61787;-80
2022/05/13 05:41:36;;;;;;;;;0.25;0.00;;;;;;;;5101111;27;61956;-80
2022/05/13 05:44:02;;;;;;;;;2.75;1.50;;;;;;;;5082257;27;63621;-82
2022/05/13 05:46:27;;;;;;;;;5.00;1.50;;;;;;;;5101826;27;61825;-82
2022/05/13 05:48:52;;;;;;;;;1.00;1.00;;;;;;;;5101726;27;61864;-84
2022/05/13 05:51:17;;;;;;;;;1.00;1.00;;;;;;;;5103086;27;61862;-82
2022/05/13 05:59:11;;;;;;;;;0.25;0.25;;;;;;;;5103009;27;61942;-83
2022/05/13 06:01:36;;;;;;;;;1.00;1.00;;;;;;;;5086273;27;62340;-82
2022/05/13 06:04:02;;;;;;;;;3.75;2.00;;;;;;;;5104992;27;62329;-84
2022/05/13 06:06:28;;;;;;;;;0.25;0.25;;;;;;;;5086406;27;62295;-83
2022/05/13 06:08:57;;;;;;;;;1.00;1.00;;;;;;;;5104793;27;61814;-82
2022/05/13 06:11:23;;;;;;;;;2.00;1.00;;;;;;;;5086795;27;61951;-82
2022/05/13 06:13:50;;;;;;;;;1.00;1.00;;;;;;;;5104391;27;62938;-83
2022/05/13 06:16:15;;;;;;;;;0.25;0.00;;;;;;;;5105609;27;61713;-81
2022/05/13 06:18:41;;;;;;;;;5.75;1.25;;;;;;;;5105237;27;61762;-82
2022/05/13 06:21:06;;;;;;;;;1.00;1.00;;;;;;;;5105039;27;62257;-82
2022/05/13 06:23:31;;;;;;;;;4.00;0.25;;;;;;;;5085801;27;64886;-82
2022/05/13 06:25:57;;;;;;;;;1.00;1.00;;;;;;;;5086742;27;62007;-82
2022/05/13 06:28:22;;;;;;;;;3.25;3.25;;;;;;;;5105192;27;61814;-84
2022/05/13 06:30:47;;;;;;;;;1.00;0.00;;;;;;;;5105374;27;62105;-83
2022/05/13 06:33:12;;;;;;;;;2.75;1.25;;;;;;;;5104202;27;61900;-88
2022/05/13 06:35:38;;;;;;;;;1.00;1.00;;;;;;;;5104932;27;62521;-79
2022/05/13 06:38:03;;;;;;;;;2.00;2.00;;;;;;;;5085038;27;62162;-81
2022/05/13 06:40:28;;;;;;;;;1.00;1.00;;;;;;;;5104530;27;61889;-90
2022/05/13 06:42:54;;;;;;;;;1.25;1.00;;;;;;;;5103599;27;62902;-85
2022/05/13 06:45:20;;;;;;;;;2.00;1.00;;;;;;;;5105069;27;62018;-82
2022/05/13 06:47:45;;;;;;;;;1.00;1.00;;;;;;;;5104419;27;62039;-83
2022/05/13 06:50:12;;;;;;;;;1.00;0.00;;;;;;;;5104601;27;61850;-83
2022/05/13 06:52:38;;;;;;;;;4.00;1.00;;;;;;;;5104044;27;61723;-82
2022/05/13 06:55:03;;;;;;;;;1.50;1.00;;;;;;;;5104187;27;62604;-81
2022/05/13 06:57:29;;;;;;;;;0.25;0.00;;;;;;;;5104442;27;61730;-81
2022/05/13 06:59:54;;;;;;;;;0.50;0.50;;;;;;;;5104635;27;62229;-81
2022/05/13 07:02:22;;;;;;;;;0.75;0.75;;;;;;;;5103611;27;62665;-82
2022/05/13 07:04:47;;;;;;;;;0.25;0.25;;;;;;;;5104405;27;61782;-80
2022/05/13 07:07:13;;;;;;;;;3.25;0.50;;;;;;;;5104722;27;61857;-82
2022/05/13 07:09:38;;;;;;;;;3.50;0.75;;;;;;;;5104618;27;61870;-82
2022/05/13 07:12:04;;;;;;;;;0.25;0.25;;;;;;;;5103554;27;61707;-81
2022/05/13 07:14:29;;;;;;;;;2.00;2.00;;;;;;;;5104422;27;61933;-81
2022/05/13 07:16:55;;;;;;;;;1.50;1.00;;;;;;;;5085983;27;61955;-82
2022/05/13 07:19:20;;;;;;;;;4.75;0.25;;;;;;;;5104398;27;61702;-82
2022/05/13 07:21:46;;;;;;;;;0.00;0.00;;;;;;;;5103900;27;61790;-82
2022/05/13 07:24:11;;;;;;;;;0.75;0.75;;;;;;;;5104206;27;61805;-82
2022/05/13 07:26:36;;;;;;;;;2.50;1.00;;;;;;;;5085735;27;61893;-82
2022/05/13 07:29:04;;;;;;;;;0.00;0.00;;;;;;;;5104471;27;61694;-82
2022/05/13 07:31:29;;;;;;;;;0.00;0.00;;;;;;;;5103577;27;62663;-82
2022/05/13 07:33:55;;;;;;;;;0.50;0.25;;;;;;;;5103882;27;61754;-81
2022/05/13 07:36:20;;;;;;;;;0.50;0.00;;;;;;;;5104127;27;61880;-82
2022/05/13 07:41:30;;;;;;;;;0.00;0.00;;;;;;;;5103671;27;62030;-82
2022/05/13 07:43:55;;;;;;;;;0.00;0.00;;;;;;;;5103570;27;61900;-82
2022/05/13 07:46:20;;;;;;;;;0.00;0.00;;;;;;;;5103792;27;61731;-83
2022/05/13 07:48:45;;;;;;;;;1.00;1.00;;;;;;;;5085348;27;61853;-82
2022/05/13 07:51:11;;;;;;;;;0.00;0.00;;;;;;;;5102321;27;61736;-82
2022/05/13 07:53:37;;;;;;;;;1.25;1.00;;;;;;;;5103287;27;61833;-80
2022/05/13 07:56:03;;;;;;;;;1.00;1.00;;;;;;;;5085470;27;61861;-82
2022/05/13 07:58:28;;;;;;;;;0.00;0.00;;;;;;;;5085512;27;61795;-82
2022/05/13 08:00:54;;;;;;;;;1.00;1.00;;;;;;;;5103319;27;61876;-82
2022/05/13 08:03:20;;;;;;;;;1.25;0.75;;;;;;;;5103540;27;61843;-83
2022/05/13 08:05:47;;;;;;;;;0.00;0.00;;;;;;;;5103653;27;61919;-82
2022/05/13 08:08:14;;;;;;;;;1.00;1.00;;;;;;;;5103300;27;62263;-82
2022/05/13 08:10:40;;;;;;;;;0.75;0.75;;;;;;;;5103194;27;63490;-82
2022/05/13 08:13:06;;;;;;;;;2.50;1.25;;;;;;;;5102400;27;62171;-80
2022/05/13 08:15:32;;;;;;;;;1.00;0.00;;;;;;;;5103460;27;62025;-81
2022/05/13 08:17:57;;;;;;;;;7.50;1.00;;;;;;;;5103605;27;61733;-82
2022/05/13 08:20:23;;;;;;;;;1.75;1.00;;;;;;;;5102377;27;61759;-81
2022/05/13 08:22:48;;;;;;;;;0.50;0.50;;;;;;;;5103320;27;61793;-81
2022/05/13 08:25:14;;;;;;;;;1.50;1.00;;;;;;;;5103204;27;62133;-82
2022/05/13 08:27:39;;;;;;;;;0.75;0.75;;;;;;;;5103524;27;61678;-81
2022/05/13 08:30:06;;;;;;;;;0.75;0.00;;;;;;;;5084365;27;63507;-82
2022/05/13 08:32:31;;;;;;;;;3.00;0.50;;;;;;;;5103370;27;61754;-81
2022/05/13 08:34:56;;;;;;;;;1.75;1.00;;;;;;;;5102974;27;61686;-82
2022/05/13 08:37:22;;;;;;;;;1.00;0.00;;;;;;;;5103166;27;61676;-81
2022/05/13 08:39:47;;;;;;;;;3.25;1.00;;;;;;;;5083816;27;63582;-82
2022/05/13 08:42:18;;;;;;;;;2.75;1.00;;;;;;;;5102966;27;61673;-82
2022/05/13 08:44:43;;;;;;;;;0.50;0.00;;;;;;;;5103169;27;61808;-81
2022/05/13 08:47:22;;;;;;;;;1.25;0.75;;;;;;;;5103138;27;61824;-81
2022/05/13 08:49:47;;;;;;;;;1.00;1.00;;;;;;;;5102191;27;62903;-80
2022/05/13 08:55:12;;;;;;;;;1.50;0.25;;;;;;;;5102963;27;61975;-82
2022/05/13 08:57:39;;;;;;;;;0.00;0.00;;;;;;;;5103163;27;62196;-81
2022/05/13 09:00:08;;;;;;;;;0.00;0.00;;;;;;;;5102302;27;62653;-81
2022/05/13 09:02:36;;;;;;;;;2.00;0.00;;;;;;;;5102754;27;61925;-82
2022/05/13 09:05:16;;;;;;;;;0.00;0.00;;;;;;;;5102680;27;61737;-82
2022/05/13 09:07:42;;;;;;;;;0.00;0.00;;;;;;;;5102740;27;61696;-82
2022/05/13 09:10:07;;;;;;;;;0.50;0.00;;;;;;;;5101868;27;62214;-81
2022/05/13 09:12:33;;;;;;;;;2.00;0.00;;;;;;;;5102438;27;61675;-81
2022/05/13 09:15:11;;;;;;;;;0.00;0.00;;;;;;;;5084217;27;61757;-82
2022/05/13 09:17:36;;;;;;;;;1.00;0.00;;;;;;;;5102880;27;61846;-83
2022/05/13 09:20:01;;;;;;;;;1.00;0.00;;;;;;;;5101632;27;61891;-81
2022/05/13 09:22:34;;;;;;;;;0.00;0.00;;;;;;;;5102258;27;62469;-81
2022/05/13 09:24:59;;;;;;;;;1.25;0.50;;;;;;;;5103889;27;61800;-81
2022/05/13 09:27:24;;;;;;;;;1.00;0.00;;;;;;;;5088036;27;61837;-81
2022/05/13 09:29:50;;;;;;;;;0.00;0.00;;;;;;;;5087267;27;63743;-83
2022/05/13 09:32:22;;;;;;;;;0.75;0.00;;;;;;;;5106195;27;62448;-81
2022/05/13 09:35:00;;;;;;;;;1.00;0.00;;;;;;;;5106193;27;61843;-79
2022/05/13 09:37:27;;;;;;;;;3.75;0.00;;;;;;;;5087395;27;61756;-81
2022/05/13 09:40:10;;;;;;;;;1.00;0.00;;;;;;;;5105447;27;61844;-82
2022/05/13 09:42:37;;;;;;;;;1.00;1.00;;;;;;;;5105872;27;61844;-81
2022/05/13 09:45:12;;;;;;;;;2.00;0.00;;;;;;;;5106150;27;62030;-81
2022/05/13 09:47:37;;;;;;;;;1.00;0.00;;;;;;;;5087522;27;61807;-82
2022/05/13 09:50:02;;;;;;;;;0.00;0.00;;;;;;;;5105081;27;62723;-81
2022/05/13 09:52:36;;;;;;;;;1.00;1.00;;;;;;;;5105516;27;61805;-82
2022/05/13 09:55:24;;;;;;;;;0.00;0.00;;;;;;;;5106053;27;61758;-82
2022/05/13 09:57:51;;;;;;;;;3.50;0.00;;;;;;;;5092479;27;61913;-81
2022/05/13 10:00:21;;;;;;;;;0.50;0.50;;;;;;;;5105319;27;61831;-81
2022/05/13 10:02:48;;;;;;;;;0.00;0.00;;;;;;;;5105267;27;61874;-82
2022/05/13 10:05:24;;;;;;;;;1.00;0.00;;;;;;;;5086693;27;62022;-81
2022/05/13 10:07:49;;;;;;;;;1.00;0.00;;;;;;;;5105625;27;61743;-80
2022/05/13 10:15:58;;;;;;;;;0.00;0.00;;;;;;;;5105826;27;61820;-80
2022/05/13 10:18:30;;;;;;;;;0.00;0.00;;;;;;;;5087164;27;61634;-80
2022/05/13 10:20:58;;;;;;;;;3.00;0.00;;;;;;;;5084230;28;61766;-81
2022/05/13 10:23:38;;;;;;;;;0.00;0.00;;;;;;;;5085013;28;62002;-81
2022/05/13 10:26:09;;;;;;;;;3.00;0.50;;;;;;;;5085073;28;62095;-81
2022/05/13 10:28:39;;;;;;;;;1.50;1.00;;;;;;;;5084837;28;61861;-81
2022/05/13 10:31:15;;;;;;;;;1.00;1.00;;;;;;;;5099904;27;63672;-81
2022/05/13 10:33:42;;;;;;;;;0.00;0.00;;;;;;;;5084183;28;61924;-83
2022/05/13 10:36:19;;;;;;;;;0.00;0.00;;;;;;;;5084079;28;62034;-82
2022/05/13 10:38:45;;;;;;;;;1.00;1.00;;;;;;;;5100355;27;62079;-81
2022/05/13 10:41:16;;;;;;;;;0.00;0.00;;;;;;;;5084021;28;61904;-82
2022/05/13 10:44:05;;;;;;;;;0.00;0.00;;;;;;;;5100190;27;61801;-81
2022/05/13 10:46:34;;;;;;;;;0.75;0.75;;;;;;;;5094466;27;61883;-81
2022/05/13 10:49:00;;;;;;;;;0.00;0.00;;;;;;;;5084547;28;61967;-81
2022/05/13 10:51:31;;;;;;;;;0.50;0.50;;;;;;;;5084037;28;62646;-81
2022/05/13 10:54:08;;;;;;;;;0.00;0.00;;;;;;;;5084461;28;61794;-81
2022/05/13 10:56:51;;;;;;;;;1.00;0.25;;;;;;;;5084394;28;61722;-82
2022/05/13 10:59:28;;;;;;;;;0.00;0.00;;;;;;;;5085155;28;62284;-83
2022/05/13 11:02:12;;;;;;;;;2.00;0.25;;;;;;;;5099456;27;64825;-81
2022/05/13 11:05:01;;;;;;;;;1.75;1.00;;;;;;;;5099720;27;61816;-82
2022/05/13 11:07:32;;;;;;;;;0.00;0.00;;;;;;;;5084480;28;61726;-81
2022/05/13 11:10:08;;;;;;;;;1.00;1.00;;;;;;;;5065860;28;61821;-81
2022/05/13 11:12:52;;;;;;;;;0.00;0.00;;;;;;;;5099252;27;64101;-81
2022/05/13 11:15:37;;;;;;;;;2.00;2.00;;;;;;;;5083991;28;61932;-82
2022/05/13 11:18:02;;;;;;;;;0.75;0.00;;;;;;;;5105318;27;61968;-82
2022/05/13 11:20:34;;;;;;;;;0.00;0.00;;;;;;;;5119414;27;61991;-81
2022/05/13 11:23:02;;;;;;;;;0.50;0.50;;;;;;;;5103627;27;62186;-84
2022/05/13 11:25:54;;;;;;;;;3.50;1.00;;;;;;;;5103544;27;61814;-82
2022/05/13 11:28:29;;;;;;;;;2.50;1.00;;;;;;;;5085416;27;61801;-82
2022/05/13 11:30:54;;;;;;;;;1.75;0.75;;;;;;;;5104129;27;61972;-82
2022/05/13 11:33:40;;;;;;;;;1.00;0.00;;;;;;;;5103741;27;61912;-84
2022/05/13 11:36:18;;;;;;;;;1.50;0.00;;;;;;;;5085972;27;61827;-81
2022/05/13 11:39:03;;;;;;;;;1.00;1.00;;;;;;;;5103928;27;61809;-83
2022/05/13 11:41:34;;;;;;;;;0.00;0.00;;;;;;;;5104361;27;61800;-81
2022/05/13 11:44:02;;;;;;;;;0.00;0.00;;;;;;;;5103632;27;62968;-83
2022/05/13 11:46:33;;;;;;;;;0.00;0.00;;;;;;;;5103881;27;62027;-83
2022/05/13 11:49:06;;;;;;;;;0.00;0.00;;;;;;;;5102588;27;61701;-83
2022/05/13 11:51:34;;;;;;;;;3.00;0.00;;;;;;;;5104369;27;61756;-83
2022/05/13 11:53:59;;;;;;;;;0.00;0.00;;;;;;;;5084685;27;63407;-82
2022/05/13 11:56:25;;;;;;;;;1.00;1.00;;;;;;;;5103958;27;61976;-82
2022/05/13 11:58:55;;;;;;;;;0.67;0.00;;;;;;;;5103724;27;61727;-83
2022/05/13 12:01:38;;;;;;;;;1.00;1.00;;;;;;;;5103833;27;61673;-81
2022/05/13 12:04:13;;;;;;;;;2.00;1.00;;;;;;;;5103078;27;62118;-83
2022/05/13 12:06:47;;;;;;;;;0.00;0.00;;;;;;;;5103690;27;61925;-83
2022/05/13 12:09:13;;;;;;;;;0.33;0.33;;;;;;;;5103634;27;61816;-83
2022/05/13 12:11:58;;;;;;;;;1.00;1.00;;;;;;;;5103734;27;61670;-82
2022/05/13 12:14:26;;;;;;;;;0.00;0.00;;;;;;;;5039509;28;61994;-82
2022/05/13 12:17:02;;;;;;;;;0.00;0.00;;;;;;;;5039863;28;61968;-83
2022/05/13 12:19:42;;;;;;;;;0.00;0.00;;;;;;;;5031152;28;62152;-84
2022/05/13 12:22:30;;;;;;;;;0.00;0.00;;;;;;;;5039869;28;61935;-82
2022/05/13 12:24:57;;;;;;;;;0.33;0.00;;;;;;;;5039176;28;62422;-83
2022/05/13 12:27:30;;;;;;;;;0.00;0.00;;;;;;;;5040147;28;62030;-83
2022/05/13 12:29:58;;;;;;;;;0.67;0.67;;;;;;;;5022784;28;62089;-82
2022/05/13 12:32:35;;;;;;;;;0.00;0.00;;;;;;;;5039822;28;61689;-84
2022/05/13 12:37:47;;;;;;;;;1.00;1.00;;;;;;;;5039404;28;62269;-84
2022/05/13 12:40:34;;;;;;;;;0.00;0.00;;;;;;;;5040016;28;62066;-84
2022/05/13 12:43:05;;;;;;;;;0.00;0.00;;;;;;;;5022815;28;62105;-84
2022/05/13 12:45:41;;;;;;;;;3.00;0.00;;;;;;;;5022076;28;64107;-83
2022/05/13 12:48:06;;;;;;;;;1.67;0.00;;;;;;;;5039242;28;61862;-82
2022/05/13 12:50:35;;;;;;;;;1.67;0.67;;;;;;;;5044782;27;62146;-84
2022/05/13 12:53:00;;;;;;;;;1.67;0.33;;;;;;;;5084776;27;62329;-84
2022/05/13 12:55:26;;;;;;;;;0.00;0.00;;;;;;;;5102254;27;62870;-85
2022/05/13 12:57:53;;;;;;;;;0.00;0.00;;;;;;;;5103004;27;61742;-85
2022/05/13 13:00:20;;;;;;;;;2.00;0.00;;;;;;;;5083577;27;62019;-86
2022/05/13 13:02:49;;;;;;;;;0.67;0.00;;;;;;;;5084879;27;61956;-84
2022/05/13 13:05:23;;;;;;;;;0.00;0.00;;;;;;;;5102125;27;61840;-85
2022/05/13 13:07:51;;;;;;;;;0.67;0.67;;;;;;;;5084007;27;62051;-85
2022/05/13 13:10:17;;;;;;;;;0.67;0.67;;;;;;;;5102589;27;61672;-85
2022/05/13 13:13:03;;;;;;;;;0.00;0.00;;;;;;;;5102815;27;61991;-84
2022/05/13 13:15:32;;;;;;;;;0.00;0.00;;;;;;;;5083166;27;63920;-86
2022/05/13 13:18:08;;;;;;;;;0.00;0.00;;;;;;;;5102646;27;61913;-85
2022/05/13 13:20:44;;;;;;;;;0.67;0.67;;;;;;;;5118219;27;61894;-86
2022/05/13 13:23:10;;;;;;;;;0.00;0.00;;;;;;;;5102612;27;61811;-84
2022/05/13 13:25:41;;;;;;;;;1.00;1.00;;;;;;;;5102030;27;61829;-84
2022/05/13 13:28:14;;;;;;;;;1.00;1.00;;;;;;;;5102278;27;61944;-86
2022/05/13 13:30:44;;;;;;;;;0.00;0.00;;;;;;;;5102634;27;61856;-86
2022/05/13 13:33:11;;;;;;;;;0.00;0.00;;;;;;;;5102184;27;61809;-86
2022/05/13 13:35:37;;;;;;;;;0.00;0.00;;;;;;;;5083093;27;64817;-86
2022/05/13 13:38:04;;;;;;;;;2.00;0.33;;;;;;;;5101816;27;61819;-88
2022/05/13 13:40:34;;;;;;;;;0.00;0.00;;;;;;;;5101173;27;62167;-83
2022/05/13 13:43:09;;;;;;;;;1.00;0.00;;;;;;;;5097911;27;61722;-83
2022/05/13 13:45:35;;;;;;;;;0.33;0.33;;;;;;;;5099908;27;62002;-85
2022/05/13 13:48:00;;;;;;;;;0.00;0.00;;;;;;;;5100753;27;62121;-85
2022/05/13 13:50:27;;;;;;;;;0.00;0.00;;;;;;;;5082060;27;61952;-84
2022/05/13 13:52:52;;;;;;;;;0.00;0.00;;;;;;;;5100956;27;61781;-84
2022/05/13 13:55:38;;;;;;;;;0.00;0.00;;;;;;;;5080449;27;62699;-84
2022/05/13 13:58:17;;;;;;;;;0.00;0.00;;;;;;;;5098416;27;61914;-84
2022/05/13 14:00:43;;;;;;;;;0.00;0.00;;;;;;;;5080000;27;62008;-82
2022/05/13 14:03:11;;;;;;;;;0.00;0.00;;;;;;;;5100556;27;61860;-83
2022/05/13 14:05:40;;;;;;;;;0.00;0.00;;;;;;;;5099517;27;62531;-82
2022/05/13 14:08:06;;;;;;;;;0.00;0.00;;;;;;;;5100133;27;62000;-83
2022/05/13 14:10:39;;;;;;;;;0.00;0.00;;;;;;;;5100847;27;61982;-81
2022/05/13 14:13:06;;;;;;;;;1.00;0.00;;;;;;;;5105218;27;61954;-83
2022/05/13 14:15:33;;;;;;;;;0.00;0.00;;;;;;;;5078684;27;64041;-83
2022/05/13 14:17:59;;;;;;;;;0.00;0.00;;;;;;;;5085607;27;62158;-83
2022/05/13 14:20:32;;;;;;;;;0.00;0.00;;;;;;;;5085654;27;62007;-82
2022/05/13 14:23:07;;;;;;;;;0.00;0.00;;;;;;;;5104738;27;61810;-83
2022/05/13 14:25:37;;;;;;;;;0.00;0.00;;;;;;;;5085122;27;63731;-84
2022/05/13 14:28:06;;;;;;;;;0.00;0.00;;;;;;;;5104635;27;61863;-85
2022/05/13 14:30:32;;;;;;;;;0.00;0.00;;;;;;;;5103993;27;61753;-85
2022/05/13 14:32:58;;;;;;;;;0.00;0.00;;;;;;;;5104514;27;61821;-84
2022/05/13 14:35:28;;;;;;;;;0.00;0.00;;;;;;;;5084886;27;65146;-85
2022/05/13 14:37:56;;;;;;;;;0.00;0.00;;;;;;;;5104106;27;61714;-86
2022/05/13 14:40:24;;;;;;;;;0.00;0.00;;;;;;;;5103816;27;61793;-85
2022/05/13 14:42:54;;;;;;;;;0.00;0.00;;;;;;;;5104040;27;62116;-84
2022/05/13 14:45:20;;;;;;;;;0.67;0.00;;;;;;;;5100628;27;61832;-85
2022/05/13 14:47:46;;;;;;;;;0.00;0.00;;;;;;;;5084949;27;61879;-85
2022/05/13 14:50:11;;;;;;;;;0.67;0.00;;;;;;;;5085121;27;61822;-85
2022/05/13 14:52:42;;;;;;;;;0.00;0.00;;;;;;;;5085582;27;62087;-85
2022/05/13 14:55:26;;;;;;;;;0.00;0.00;;;;;;;;5083857;27;63622;-85
2022/05/13 14:57:51;;;;;;;;;0.00;0.00;;;;;;;;5084078;27;61953;-84
2022/05/13 15:00:21;;;;;;;;;0.00;0.00;;;;;;;;5103330;27;62019;-85
2022/05/13 15:02:47;;;;;;;;;0.00;0.00;;;;;;;;5101727;27;61746;-84
2022/05/13 15:05:26;;;;;;;;;0.00;0.00;;;;;;;;5083654;27;63625;-83
2022/05/13 15:07:52;;;;;;;;;0.00;0.00;;;;;;;;5083398;27;61910;-84
2022/05/13 15:10:22;;;;;;;;;0.00;0.00;;;;;;;;5084661;27;62215;-84
2022/05/13 15:12:48;;;;;;;;;1.00;0.00;;;;;;;;5082877;27;61698;-86
2022/05/13 15:15:15;;;;;;;;;0.00;0.00;;;;;;;;5102685;27;61864;-85
2022/05/13 15:18:06;;;;;;;;;0.00;0.00;;;;;;;;5084601;27;61977;-84
2022/05/13 15:20:31;;;;;;;;;2.33;0.00;;;;;;;;5110062;27;62212;-85
2022/05/13 15:22:58;;;;;;;;;0.00;0.00;;;;;;;;5084603;27;61999;-85
2022/05/13 15:25:23;;;;;;;;;0.00;0.00;;;;;;;;5099673;27;62926;-84